Time;durP1;ratioP1;P1;durP2;ratioP2;P2;SDS_P1;SDS_P2;PMS_P1;PMS_P2;Temp;Humidity;BMP_temperature;BMP_pressure;BME280_temperature;BME280_humidity;BME280_pressure;Samples;Min_cycle;Max_cycle;Signal;HPM_P1;HPM_P2
2023/10/25 00:00:17;;;;;;;14.05;7.00;;;;;;;;;;5002005;28;20062;-83
2023/10/25 00:02:43;;;;;;;16.73;7.13;;;;;;;;;;5001670;28;20053;-83
2023/10/25 00:05:09;;;;;;;17.00;7.13;;;;;;;;;;5000717;28;20105;-83
2023/10/25 00:07:35;;;;;;;13.70;7.10;;;;;;;;;;5002888;28;20125;-83
2023/10/25 00:10:01;;;;;;;11.40;6.82;;;;;;;;;;5002769;28;20039;-82
2023/10/25 00:12:28;;;;;;;13.70;7.10;;;;;;;;;;5000663;28;20506;-82
2023/10/25 00:14:54;;;;;;;15.60;7.28;;;;;;;;;;5002358;28;20045;-83
2023/10/25 00:17:20;;;;;;;13.65;7.35;;;;;;;;;;5003016;28;20054;-83
2023/10/25 00:19:46;;;;;;;15.18;7.43;;;;;;;;;;5003055;28;20057;-84
2023/10/25 00:22:12;;;;;;;13.98;6.78;;;;;;;;;;5002847;28;20053;-83
2023/10/25 00:24:38;;;;;;;16.20;7.88;;;;;;;;;;5002194;28;20038;-82
2023/10/25 00:27:05;;;;;;;17.42;7.63;;;;;;;;;;5001873;28;20046;-82
2023/10/25 00:29:31;;;;;;;14.23;6.80;;;;;;;;;;4999568;28;20066;-83
2023/10/25 00:31:57;;;;;;;14.20;7.25;;;;;;;;;;4998775;28;20041;-83
2023/10/25 00:34:23;;;;;;;14.93;7.63;;;;;;;;;;5000911;28;20141;-83
2023/10/25 00:36:49;;;;;;;13.02;7.35;;;;;;;;;;4992880;28;20046;-83
2023/10/25 00:39:15;;;;;;;14.77;6.43;;;;;;;;;;4999470;28;20042;-83
2023/10/25 00:41:41;;;;;;;11.18;6.95;;;;;;;;;;4991216;28;20049;-84
2023/10/25 00:44:07;;;;;;;12.98;7.70;;;;;;;;;;4996561;28;20042;-83
2023/10/25 00:46:33;;;;;;;13.75;7.72;;;;;;;;;;4990463;28;20607;-83
2023/10/25 00:49:00;;;;;;;13.55;7.30;;;;;;;;;;4996434;28;20050;-83
2023/10/25 00:51:27;;;;;;;15.40;7.75;;;;;;;;;;4999630;28;20053;-83
2023/10/25 00:53:55;;;;;;;15.00;7.75;;;;;;;;;;5001040;28;20046;-83
2023/10/25 00:56:27;;;;;;;17.33;7.50;;;;;;;;;;5001803;28;20096;-83
2023/10/25 00:58:56;;;;;;;14.43;8.07;;;;;;;;;;5001587;28;20065;-84
2023/10/25 01:01:23;;;;;;;15.25;7.43;;;;;;;;;;5000080;28;20050;-83
2023/10/25 01:03:49;;;;;;;15.63;8.10;;;;;;;;;;5000450;28;20039;-84
2023/10/25 01:06:18;;;;;;;16.10;7.80;;;;;;;;;;5001303;28;20050;-83
2023/10/25 01:08:44;;;;;;;15.77;8.48;;;;;;;;;;5002788;28;20055;-83
2023/10/25 01:11:11;;;;;;;16.33;7.50;;;;;;;;;;5000670;28;20162;-83
2023/10/25 01:13:39;;;;;;;16.75;7.78;;;;;;;;;;4985073;28;20555;-83
2023/10/25 01:16:05;;;;;;;15.82;8.35;;;;;;;;;;4983334;28;20061;-83
2023/10/25 01:18:31;;;;;;;15.18;7.90;;;;;;;;;;4981863;28;20043;-83
2023/10/25 01:20:57;;;;;;;13.40;7.43;;;;;;;;;;4982453;28;20046;-83
2023/10/25 01:23:23;;;;;;;13.63;7.45;;;;;;;;;;4981559;28;20042;-84
2023/10/25 01:25:49;;;;;;;16.63;7.80;;;;;;;;;;4972745;28;20047;-83
2023/10/25 01:28:18;;;;;;;17.85;7.68;;;;;;;;;;4981241;28;20706;-83
2023/10/25 01:30:44;;;;;;;14.27;7.82;;;;;;;;;;4980681;28;20059;-84
2023/10/25 01:33:10;;;;;;;11.48;7.20;;;;;;;;;;4982544;28;20051;-83
2023/10/25 01:35:37;;;;;;;16.00;7.85;;;;;;;;;;4982994;28;20051;-84
2023/10/25 01:38:03;;;;;;;16.55;8.00;;;;;;;;;;5000387;28;20463;-84
2023/10/25 01:40:30;;;;;;;17.30;8.05;;;;;;;;;;4978679;28;20069;-84
2023/10/25 01:42:56;;;;;;;15.88;8.18;;;;;;;;;;4980522;28;20073;-85
2023/10/25 01:45:27;;;;;;;14.63;8.07;;;;;;;;;;4981885;28;20142;-83
2023/10/25 01:47:53;;;;;;;13.60;7.75;;;;;;;;;;4981546;28;20107;-84
2023/10/25 01:50:20;;;;;;;14.25;8.25;;;;;;;;;;4981477;28;20051;-84
2023/10/25 01:52:46;;;;;;;16.58;8.00;;;;;;;;;;4982913;28;20053;-83
2023/10/25 01:55:12;;;;;;;14.73;7.82;;;;;;;;;;4980169;28;20095;-84
2023/10/25 01:57:38;;;;;;;15.20;8.25;;;;;;;;;;4981954;28;20086;-84
2023/10/25 02:00:06;;;;;;;15.38;8.35;;;;;;;;;;4981703;28;20086;-84
2023/10/25 02:02:33;;;;;;;15.88;7.90;;;;;;;;;;4970608;28;20444;-84
2023/10/25 02:04:59;;;;;;;14.52;8.68;;;;;;;;;;4978629;28;20047;-84
2023/10/25 02:07:25;;;;;;;16.35;9.10;;;;;;;;;;4992439;28;20054;-84
2023/10/25 02:09:51;;;;;;;19.20;9.05;;;;;;;;;;4980917;28;20488;-84
2023/10/25 02:12:17;;;;;;;15.07;8.43;;;;;;;;;;4980361;28;20050;-83
2023/10/25 02:14:44;;;;;;;20.48;9.52;;;;;;;;;;4984239;28;20054;-83
2023/10/25 02:17:10;;;;;;;17.50;8.80;;;;;;;;;;4986436;28;20050;-84
2023/10/25 02:19:36;;;;;;;16.50;9.25;;;;;;;;;;4985240;28;20049;-84
2023/10/25 02:22:02;;;;;;;17.40;9.60;;;;;;;;;;4972026;28;20122;-84
2023/10/25 02:24:28;;;;;;;15.80;9.13;;;;;;;;;;4976991;28;20074;-84
2023/10/25 02:26:55;;;;;;;16.55;9.25;;;;;;;;;;4975385;28;20050;-83
2023/10/25 02:29:21;;;;;;;15.70;8.93;;;;;;;;;;4985954;28;20066;-84
2023/10/25 02:31:47;;;;;;;18.88;9.10;;;;;;;;;;4967349;28;20408;-84
2023/10/25 02:34:19;;;;;;;16.15;9.48;;;;;;;;;;4993782;28;20050;-84
2023/10/25 02:36:45;;;;;;;18.75;8.73;;;;;;;;;;4992587;28;20046;-84
2023/10/25 02:39:11;;;;;;;14.30;8.80;;;;;;;;;;4983794;28;20500;-84
2023/10/25 02:41:41;;;;;;;16.70;8.55;;;;;;;;;;4979225;28;20067;-84
2023/10/25 02:44:07;;;;;;;16.98;9.07;;;;;;;;;;4966334;29;20185;-84
2023/10/25 02:46:33;;;;;;;18.80;9.48;;;;;;;;;;4984077;28;20043;-84
2023/10/25 02:48:59;;;;;;;19.70;9.15;;;;;;;;;;4997934;28;20530;-84
2023/10/25 02:51:25;;;;;;;18.63;9.48;;;;;;;;;;4983426;28;20038;-84
2023/10/25 02:53:54;;;;;;;15.25;8.82;;;;;;;;;;4984996;28;20051;-84
2023/10/25 02:56:20;;;;;;;18.20;8.85;;;;;;;;;;4979889;28;20043;-83
2023/10/25 02:58:46;;;;;;;19.02;9.43;;;;;;;;;;4974798;28;20050;-83
2023/10/25 03:01:22;;;;;;;18.27;8.48;;;;;;;;;;4984577;28;20081;-84
2023/10/25 03:03:48;;;;;;;14.55;8.10;;;;;;;;;;4984276;28;20077;-83
2023/10/25 03:06:15;;;;;;;19.05;9.52;;;;;;;;;;4981906;28;20484;-84
2023/10/25 03:08:41;;;;;;;14.73;8.00;;;;;;;;;;4965706;28;20050;-84
2023/10/25 03:11:07;;;;;;;17.13;7.97;;;;;;;;;;4983750;28;20053;-83
2023/10/25 03:13:33;;;;;;;18.00;8.82;;;;;;;;;;4983114;28;20053;-84
2023/10/25 03:15:59;;;;;;;19.10;9.75;;;;;;;;;;4982845;28;20051;-84
2023/10/25 03:18:25;;;;;;;17.50;9.43;;;;;;;;;;4983680;28;20054;-84
2023/10/25 03:20:51;;;;;;;16.48;9.35;;;;;;;;;;4977251;28;20047;-84
2023/10/25 03:23:17;;;;;;;13.85;8.07;;;;;;;;;;4981276;28;20043;-84
2023/10/25 03:25:43;;;;;;;17.17;8.77;;;;;;;;;;4974318;28;20043;-84
2023/10/25 03:28:09;;;;;;;19.65;9.63;;;;;;;;;;4991035;28;20042;-84
2023/10/25 03:30:36;;;;;;;25.27;9.55;;;;;;;;;;4982141;28;20051;-84
2023/10/25 03:33:02;;;;;;;15.73;8.48;;;;;;;;;;4978905;28;20047;-84
2023/10/25 03:35:29;;;;;;;17.52;9.25;;;;;;;;;;4984127;28;20042;-84
2023/10/25 03:37:55;;;;;;;16.17;8.20;;;;;;;;;;4984479;28;20515;-84
2023/10/25 03:40:21;;;;;;;15.77;8.85;;;;;;;;;;4984509;28;20456;-84
2023/10/25 03:42:48;;;;;;;19.88;9.80;;;;;;;;;;4982300;28;20050;-84
2023/10/25 03:45:14;;;;;;;18.02;9.02;;;;;;;;;;4983986;28;20049;-84
2023/10/25 03:47:40;;;;;;;14.52;8.23;;;;;;;;;;4983159;28;20047;-84
2023/10/25 03:50:06;;;;;;;15.07;8.95;;;;;;;;;;4983000;28;20047;-84
2023/10/25 03:52:33;;;;;;;16.30;9.10;;;;;;;;;;4983879;28;20059;-84
2023/10/25 03:54:59;;;;;;;16.15;9.60;;;;;;;;;;4983653;28;20051;-84
2023/10/25 03:57:26;;;;;;;14.52;9.00;;;;;;;;;;4997811;28;20050;-84
2023/10/25 03:59:52;;;;;;;17.80;9.32;;;;;;;;;;4968644;28;20083;-84
2023/10/25 04:02:18;;;;;;;18.55;8.68;;;;;;;;;;4981610;28;20047;-84
2023/10/25 04:04:44;;;;;;;17.73;9.50;;;;;;;;;;4978472;28;20055;-84
2023/10/25 04:07:14;;;;;;;16.05;9.13;;;;;;;;;;4983531;28;20041;-84
2023/10/25 04:09:40;;;;;;;18.08;8.57;;;;;;;;;;4980083;28;20046;-85
2023/10/25 04:12:11;;;;;;;16.00;9.23;;;;;;;;;;4973541;28;20054;-84
2023/10/25 04:14:37;;;;;;;17.63;9.57;;;;;;;;;;4970924;28;20054;-84
2023/10/25 04:17:04;;;;;;;17.98;9.63;;;;;;;;;;4967985;28;20105;-84
2023/10/25 04:19:30;;;;;;;16.85;9.13;;;;;;;;;;4977601;28;20050;-84
2023/10/25 04:21:56;;;;;;;13.57;8.45;;;;;;;;;;4982594;28;20047;-84
2023/10/25 04:24:22;;;;;;;17.17;9.70;;;;;;;;;;4979204;28;20451;-84
2023/10/25 04:26:48;;;;;;;17.25;8.82;;;;;;;;;;4979617;28;20556;-84
2023/10/25 04:29:14;;;;;;;18.85;9.80;;;;;;;;;;4975376;28;20050;-84
2023/10/25 04:31:40;;;;;;;15.25;9.32;;;;;;;;;;4981845;28;20047;-84
2023/10/25 04:34:06;;;;;;;16.08;8.98;;;;;;;;;;4981290;28;20519;-84
2023/10/25 04:36:32;;;;;;;16.48;9.00;;;;;;;;;;4980551;28;20420;-83
2023/10/25 04:38:58;;;;;;;15.35;9.15;;;;;;;;;;4981764;28;20051;-84
2023/10/25 04:41:24;;;;;;;16.60;8.55;;;;;;;;;;4982875;28;20046;-84
2023/10/25 04:43:50;;;;;;;17.15;8.57;;;;;;;;;;4980567;28;20115;-84
2023/10/25 04:46:16;;;;;;;20.20;9.75;;;;;;;;;;4979130;28;20046;-84
2023/10/25 04:48:42;;;;;;;14.10;8.25;;;;;;;;;;4994299;28;20046;-84
2023/10/25 04:51:13;;;;;;;18.13;8.98;;;;;;;;;;4984431;28;20069;-83
2023/10/25 04:53:39;;;;;;;17.83;8.88;;;;;;;;;;4971236;28;20404;-84
2023/10/25 04:56:06;;;;;;;21.58;9.45;;;;;;;;;;4976305;28;20107;-84
2023/10/25 04:58:32;;;;;;;17.23;9.57;;;;;;;;;;4978530;28;20106;-84
2023/10/25 05:00:58;;;;;;;18.52;9.38;;;;;;;;;;4979252;28;20310;-84
2023/10/25 05:03:24;;;;;;;17.45;9.38;;;;;;;;;;4980382;28;20046;-84
2023/10/25 05:05:50;;;;;;;15.55;9.00;;;;;;;;;;4979839;28;20051;-84
2023/10/25 05:08:16;;;;;;;19.35;9.05;;;;;;;;;;4981498;28;20039;-84
2023/10/25 05:10:45;;;;;;;14.73;8.63;;;;;;;;;;4980975;28;20404;-84
2023/10/25 05:13:14;;;;;;;15.75;9.25;;;;;;;;;;4982089;28;20053;-84
2023/10/25 05:15:40;;;;;;;14.45;9.13;;;;;;;;;;4981545;28;20105;-84
2023/10/25 05:18:06;;;;;;;22.35;9.88;;;;;;;;;;4981174;28;20035;-84
2023/10/25 05:20:32;;;;;;;16.70;8.57;;;;;;;;;;4982195;28;20047;-84
2023/10/25 05:22:59;;;;;;;15.52;9.13;;;;;;;;;;4981827;28;20073;-84
2023/10/25 05:25:25;;;;;;;17.63;9.70;;;;;;;;;;4982225;28;20564;-84
2023/10/25 05:27:52;;;;;;;18.52;10.43;;;;;;;;;;4981812;28;20061;-84
2023/10/25 05:30:20;;;;;;;17.15;10.07;;;;;;;;;;4979838;28;20050;-83
2023/10/25 05:32:46;;;;;;;18.35;10.50;;;;;;;;;;4978559;28;20046;-84
2023/10/25 05:35:13;;;;;;;19.42;10.02;;;;;;;;;;4972684;28;20130;-84
2023/10/25 05:37:39;;;;;;;16.90;9.32;;;;;;;;;;4977606;28;20046;-84
2023/10/25 05:40:06;;;;;;;18.77;9.98;;;;;;;;;;4980270;28;20050;-84
2023/10/25 05:42:33;;;;;;;22.98;10.02;;;;;;;;;;4981569;28;20047;-84
2023/10/25 05:44:59;;;;;;;17.83;9.98;;;;;;;;;;4981303;28;20116;-84
2023/10/25 05:47:26;;;;;;;20.05;10.13;;;;;;;;;;4981400;28;20050;-83
2023/10/25 05:49:52;;;;;;;22.67;10.32;;;;;;;;;;4983708;28;20047;-84
2023/10/25 05:52:19;;;;;;;21.63;10.18;;;;;;;;;;4983999;28;20042;-84
2023/10/25 05:54:45;;;;;;;16.33;9.13;;;;;;;;;;4983705;28;20049;-83
2023/10/25 05:57:12;;;;;;;19.92;10.07;;;;;;;;;;4983920;28;20115;-83
2023/10/25 05:59:38;;;;;;;17.75;9.52;;;;;;;;;;4983226;28;20055;-84
2023/10/25 06:02:04;;;;;;;25.30;10.82;;;;;;;;;;4976492;28;20055;-84
2023/10/25 06:04:31;;;;;;;20.88;10.25;;;;;;;;;;4982562;28;20057;-84
2023/10/25 06:06:57;;;;;;;17.25;10.23;;;;;;;;;;4977981;28;20105;-84
2023/10/25 06:09:24;;;;;;;19.38;10.43;;;;;;;;;;4981994;28;20057;-83
2023/10/25 06:11:50;;;;;;;18.65;10.48;;;;;;;;;;4978584;28;20035;-84
2023/10/25 06:14:16;;;;;;;19.45;11.00;;;;;;;;;;4981208;28;20051;-84
2023/10/25 06:16:42;;;;;;;18.65;10.57;;;;;;;;;;4980120;28;20049;-83
2023/10/25 06:19:09;;;;;;;22.92;11.45;;;;;;;;;;4980397;28;20042;-83
2023/10/25 06:21:35;;;;;;;19.30;10.98;;;;;;;;;;4981859;28;20046;-84
2023/10/25 06:24:01;;;;;;;21.02;11.43;;;;;;;;;;4985830;28;20047;-84
2023/10/25 06:26:27;;;;;;;18.75;10.88;;;;;;;;;;4980848;28;20070;-84
2023/10/25 06:28:53;;;;;;;19.83;10.18;;;;;;;;;;4985188;28;20055;-84
2023/10/25 06:31:19;;;;;;;14.40;9.98;;;;;;;;;;4986774;28;20093;-84
2023/10/25 06:33:45;;;;;;;21.73;10.80;;;;;;;;;;4982601;28;20047;-84
2023/10/25 06:36:12;;;;;;;18.52;10.88;;;;;;;;;;4985090;28;20118;-83
2023/10/25 06:38:38;;;;;;;23.58;11.10;;;;;;;;;;4985740;28;20057;-83
2023/10/25 06:41:04;;;;;;;24.25;11.48;;;;;;;;;;4984423;28;20051;-83
2023/10/25 06:43:31;;;;;;;18.85;9.95;;;;;;;;;;4986580;28;20046;-84
2023/10/25 06:45:59;;;;;;;18.88;10.25;;;;;;;;;;4985704;28;20083;-84
2023/10/25 06:48:25;;;;;;;20.90;11.18;;;;;;;;;;4984861;28;20042;-85
2023/10/25 06:50:51;;;;;;;20.50;11.70;;;;;;;;;;4980053;28;20122;-84
2023/10/25 06:53:17;;;;;;;20.27;11.48;;;;;;;;;;4980731;28;20047;-84
2023/10/25 06:55:43;;;;;;;27.65;14.30;;;;;;;;;;4979736;28;20043;-84
2023/10/25 06:58:12;;;;;;;19.67;11.88;;;;;;;;;;4980512;28;20046;-83
2023/10/25 07:00:41;;;;;;;28.05;12.25;;;;;;;;;;4979383;28;20046;-83
2023/10/25 07:03:10;;;;;;;24.88;13.65;;;;;;;;;;4980644;28;20058;-83
2023/10/25 07:05:36;;;;;;;26.33;13.00;;;;;;;;;;4981515;28;20437;-85
2023/10/25 07:08:03;;;;;;;16.30;11.75;;;;;;;;;;4981763;28;20113;-85
2023/10/25 07:10:29;;;;;;;21.35;11.43;;;;;;;;;;4982479;28;20049;-85
2023/10/25 07:12:55;;;;;;;21.30;11.18;;;;;;;;;;4980107;28;20054;-85
2023/10/25 07:15:23;;;;;;;18.08;11.45;;;;;;;;;;4980309;28;20046;-85
2023/10/25 07:17:49;;;;;;;19.75;11.13;;;;;;;;;;4978947;28;20484;-84
2023/10/25 07:20:16;;;;;;;18.25;10.30;;;;;;;;;;4979356;28;20055;-85
2023/10/25 07:22:42;;;;;;;19.48;11.82;;;;;;;;;;4980873;28;20061;-85
2023/10/25 07:25:09;;;;;;;20.40;11.20;;;;;;;;;;4983434;28;20046;-84
2023/10/25 07:27:38;;;;;;;19.48;11.27;;;;;;;;;;4984805;28;20043;-84
2023/10/25 07:30:05;;;;;;;18.90;11.00;;;;;;;;;;4974667;28;20078;-83
2023/10/25 07:32:32;;;;;;;25.25;12.38;;;;;;;;;;4983528;28;20047;-83
2023/10/25 07:34:58;;;;;;;22.75;12.23;;;;;;;;;;4979735;28;20113;-83
2023/10/25 07:37:24;;;;;;;18.23;12.27;;;;;;;;;;4984294;28;20054;-84
2023/10/25 07:39:50;;;;;;;18.25;12.77;;;;;;;;;;4987524;28;20058;-84
2023/10/25 07:42:16;;;;;;;22.83;13.05;;;;;;;;;;4984202;28;20166;-83
2023/10/25 07:44:42;;;;;;;20.17;13.20;;;;;;;;;;4981167;28;20043;-84
2023/10/25 07:47:08;;;;;;;24.00;13.30;;;;;;;;;;4981665;28;20050;-79
2023/10/25 07:49:35;;;;;;;21.10;12.98;;;;;;;;;;4982537;28;20046;-83
2023/10/25 07:52:01;;;;;;;26.35;13.32;;;;;;;;;;4969822;28;20186;-83
2023/10/25 07:54:27;;;;;;;20.77;13.32;;;;;;;;;;4981645;28;20125;-83
2023/10/25 07:56:53;;;;;;;23.75;14.07;;;;;;;;;;4980576;28;20046;-84
2023/10/25 07:59:19;;;;;;;25.88;14.02;;;;;;;;;;4981750;28;20069;-83
2023/10/25 08:01:45;;;;;;;19.35;12.23;;;;;;;;;;4979998;28;20133;-82
2023/10/25 08:04:11;;;;;;;24.45;13.50;;;;;;;;;;4979557;28;20137;-82
2023/10/25 08:06:38;;;;;;;21.52;12.23;;;;;;;;;;4979393;28;20046;-81
2023/10/25 08:09:04;;;;;;;20.92;13.32;;;;;;;;;;4978680;28;20097;-84
2023/10/25 08:11:34;;;;;;;22.83;14.05;;;;;;;;;;4978986;28;20546;-84
2023/10/25 08:14:00;;;;;;;19.83;13.52;;;;;;;;;;4980331;28;20047;-84
2023/10/25 08:16:26;;;;;;;19.08;13.45;;;;;;;;;;4980072;28;20051;-84
2023/10/25 08:18:52;;;;;;;20.42;14.05;;;;;;;;;;4979713;28;20043;-83
2023/10/25 08:21:18;;;;;;;21.80;14.18;;;;;;;;;;4977495;28;20074;-85
2023/10/25 08:23:45;;;;;;;20.77;13.30;;;;;;;;;;4978784;28;20057;-84
2023/10/25 08:26:11;;;;;;;21.65;14.77;;;;;;;;;;4977847;28;20125;-84
2023/10/25 08:28:37;;;;;;;19.83;13.55;;;;;;;;;;4982832;28;20073;-84
2023/10/25 08:31:13;;;;;;;22.80;13.43;;;;;;;;;;4982204;28;20047;-84
2023/10/25 08:33:39;;;;;;;21.73;13.57;;;;;;;;;;4982701;28;20058;-84
2023/10/25 08:36:06;;;;;;;24.17;13.25;;;;;;;;;;4978789;28;20142;-84
2023/10/25 08:38:32;;;;;;;19.10;13.10;;;;;;;;;;4980052;28;22362;-85
2023/10/25 08:41:02;;;;;;;23.95;13.77;;;;;;;;;;4980478;28;20386;-83
2023/10/25 08:43:28;;;;;;;22.52;14.10;;;;;;;;;;4980260;28;20477;-84
2023/10/25 08:45:56;;;;;;;18.30;12.90;;;;;;;;;;4980933;28;20046;-84
2023/10/25 08:48:23;;;;;;;19.50;13.15;;;;;;;;;;4979823;28;20090;-84
2023/10/25 08:50:49;;;;;;;23.10;13.40;;;;;;;;;;4980787;28;20082;-84
2023/10/25 08:53:16;;;;;;;20.63;13.07;;;;;;;;;;4979902;28;20051;-84
2023/10/25 08:55:42;;;;;;;18.00;12.75;;;;;;;;;;4982255;28;20334;-84
2023/10/25 08:58:08;;;;;;;19.77;12.68;;;;;;;;;;4984227;28;20069;-84
2023/10/25 09:00:34;;;;;;;17.08;12.30;;;;;;;;;;4980589;28;20375;-84
2023/10/25 09:03:01;;;;;;;18.52;13.27;;;;;;;;;;4989489;28;20069;-83
2023/10/25 09:05:38;;;;;;;20.10;13.55;;;;;;;;;;4983412;28;20058;-84
2023/10/25 09:08:15;;;;;;;18.83;12.73;;;;;;;;;;4981719;28;20065;-84
2023/10/25 09:10:41;;;;;;;20.23;12.13;;;;;;;;;;4984077;28;20086;-84
2023/10/25 09:13:13;;;;;;;22.30;11.80;;;;;;;;;;4982518;28;20046;-84
2023/10/25 09:15:39;;;;;;;20.73;12.77;;;;;;;;;;4982483;28;20085;-84
2023/10/25 09:18:05;;;;;;;22.38;12.25;;;;;;;;;;4982010;28;20051;-84
2023/10/25 09:20:32;;;;;;;17.45;11.63;;;;;;;;;;4982622;28;20078;-84
2023/10/25 09:23:11;;;;;;;20.42;12.00;;;;;;;;;;4962464;28;20098;-84
2023/10/25 09:25:40;;;;;;;15.50;10.57;;;;;;;;;;4976606;28;20074;-84
2023/10/25 09:28:16;;;;;;;15.70;11.32;;;;;;;;;;4982189;28;20047;-84
2023/10/25 09:30:42;;;;;;;17.15;10.30;;;;;;;;;;4983368;28;20043;-84
2023/10/25 09:33:08;;;;;;;17.58;10.68;;;;;;;;;;4975948;28;20082;-82
2023/10/25 09:35:35;;;;;;;16.58;10.32;;;;;;;;;;4980772;28;20050;-83
2023/10/25 09:38:01;;;;;;;13.38;9.02;;;;;;;;;;4981250;28;20043;-84
2023/10/25 09:40:27;;;;;;;14.50;9.63;;;;;;;;;;4981361;28;20049;-84
2023/10/25 09:42:57;;;;;;;17.92;9.63;;;;;;;;;;4981356;28;20385;-83
2023/10/25 09:45:31;;;;;;;14.73;9.00;;;;;;;;;;4981092;28;20043;-83
2023/10/25 09:48:05;;;;;;;14.70;8.73;;;;;;;;;;4982905;28;20054;-83
2023/10/25 09:50:37;;;;;;;12.05;9.13;;;;;;;;;;4977341;28;20171;-82
2023/10/25 09:53:26;;;;;;;15.65;8.02;;;;;;;;;;4980744;28;20074;-82
2023/10/25 09:55:54;;;;;;;19.25;8.68;;;;;;;;;;4980703;28;20055;-83
2023/10/25 09:58:22;;;;;;;12.57;7.38;;;;;;;;;;4981110;28;20078;-83
2023/10/25 10:00:49;;;;;;;13.75;8.20;;;;;;;;;;4964378;29;20122;-82
2023/10/25 10:03:15;;;;;;;13.23;8.48;;;;;;;;;;4965497;28;20047;-83
2023/10/25 10:06:07;;;;;;;15.95;8.30;;;;;;;;;;4982291;28;20054;-83
2023/10/25 10:08:41;;;;;;;16.48;8.63;;;;;;;;;;4963917;28;20063;-83
2023/10/25 10:11:12;;;;;;;13.40;8.85;;;;;;;;;;4980487;28;20111;-84
2023/10/25 10:13:38;;;;;;;24.55;14.38;;;;;;;;;;4981878;28;20047;-83
2023/10/25 10:16:05;;;;;;;22.30;13.65;;;;;;;;;;4980367;28;20042;-82
2023/10/25 10:18:35;;;;;;;25.90;15.70;;;;;;;;;;4976218;28;20039;-81
2023/10/25 10:21:06;;;;;;;25.70;15.52;;;;;;;;;;4974649;28;20188;-81
2023/10/25 10:23:40;;;;;;;20.67;12.25;;;;;;;;;;4978347;28;20043;-83
2023/10/25 10:26:09;;;;;;;16.35;7.93;;;;;;;;;;4983270;28;20043;-83
2023/10/25 10:28:38;;;;;;;15.98;7.63;;;;;;;;;;4965344;28;20073;-84
2023/10/25 10:31:05;;;;;;;10.52;6.38;;;;;;;;;;4981675;28;20098;-84
2023/10/25 10:33:35;;;;;;;9.98;6.05;;;;;;;;;;4981249;28;20122;-83
2023/10/25 10:36:01;;;;;;;10.55;7.03;;;;;;;;;;4985517;28;20074;-83
2023/10/25 10:38:28;;;;;;;12.95;7.20;;;;;;;;;;4982772;28;20050;-83
2023/10/25 10:41:01;;;;;;;12.77;7.25;;;;;;;;;;4985706;28;20109;-83
2023/10/25 10:43:28;;;;;;;12.07;7.32;;;;;;;;;;4986043;28;20034;-83
2023/10/25 10:45:55;;;;;;;12.10;6.90;;;;;;;;;;4985631;28;20519;-83
2023/10/25 10:48:27;;;;;;;12.52;6.80;;;;;;;;;;4986041;28;20102;-83
2023/10/25 10:50:53;;;;;;;12.80;6.50;;;;;;;;;;4984272;28;20054;-83
2023/10/25 10:53:19;;;;;;;10.75;6.57;;;;;;;;;;4984760;28;20066;-83
2023/10/25 10:55:45;;;;;;;12.13;6.57;;;;;;;;;;4982697;28;20057;-83
2023/10/25 10:58:12;;;;;;;11.20;6.50;;;;;;;;;;4992864;28;20062;-83
2023/10/25 11:00:44;;;;;;;14.85;6.72;;;;;;;;;;4979537;28;20489;-83
2023/10/25 11:03:10;;;;;;;15.80;6.60;;;;;;;;;;4976895;28;20043;-83
2023/10/25 11:05:39;;;;;;;13.32;6.63;;;;;;;;;;4968359;28;20078;-83
2023/10/25 11:08:10;;;;;;;12.30;5.75;;;;;;;;;;4985367;28;20473;-84
2023/10/25 11:10:37;;;;;;;13.40;5.78;;;;;;;;;;4990256;28;20062;-84
2023/10/25 11:13:06;;;;;;;9.45;4.50;;;;;;;;;;4985611;28;20062;-84
2023/10/25 11:15:32;;;;;;;12.18;5.00;;;;;;;;;;4985099;28;20134;-84
2023/10/25 11:18:00;;;;;;;11.50;5.10;;;;;;;;;;4984949;28;20213;-83
2023/10/25 11:20:28;;;;;;;7.38;4.30;;;;;;;;;;4984284;28;20069;-83
2023/10/25 11:22:54;;;;;;;12.25;4.50;;;;;;;;;;4969529;28;20381;-83
2023/10/25 11:25:24;;;;;;;11.68;4.80;;;;;;;;;;4980578;28;20062;-84
2023/10/25 11:27:50;;;;;;;12.32;4.55;;;;;;;;;;4976918;28;20106;-84
2023/10/25 11:30:18;;;;;;;11.85;4.78;;;;;;;;;;4984318;28;20085;-84
2023/10/25 11:32:44;;;;;;;9.15;4.43;;;;;;;;;;4987183;28;20089;-83
2023/10/25 11:35:27;;;;;;;10.05;4.47;;;;;;;;;;4982650;28;20042;-83
2023/10/25 11:37:53;;;;;;;10.32;4.30;;;;;;;;;;4983944;28;20389;-84
2023/10/25 11:40:20;;;;;;;11.38;4.60;;;;;;;;;;4984019;28;20128;-83
2023/10/25 11:42:46;;;;;;;9.90;4.75;;;;;;;;;;4983419;28;20107;-83
2023/10/25 11:45:15;;;;;;;11.70;4.72;;;;;;;;;;4983391;28;20443;-84
2023/10/25 11:47:41;;;;;;;11.05;4.53;;;;;;;;;;4982875;28;20119;-83
2023/10/25 11:50:08;;;;;;;10.85;4.70;;;;;;;;;;4980479;28;20053;-83
2023/10/25 11:52:34;;;;;;;9.35;4.53;;;;;;;;;;4983243;28;20479;-83
2023/10/25 11:55:01;;;;;;;9.95;4.40;;;;;;;;;;4976425;28;20051;-83
2023/10/25 11:57:29;;;;;;;10.43;4.47;;;;;;;;;;4964161;28;20133;-84
2023/10/25 11:59:55;;;;;;;8.23;4.65;;;;;;;;;;4968738;28;20102;-83
2023/10/25 12:02:23;;;;;;;14.10;5.05;;;;;;;;;;4981374;28;20065;-83
2023/10/25 12:04:50;;;;;;;13.20;4.72;;;;;;;;;;4983625;28;20476;-83
2023/10/25 12:07:20;;;;;;;11.07;4.28;;;;;;;;;;4983327;28;20050;-83
2023/10/25 12:09:46;;;;;;;11.95;4.47;;;;;;;;;;4982875;28;20054;-84
2023/10/25 12:12:12;;;;;;;9.93;4.90;;;;;;;;;;4981707;28;20482;-84
2023/10/25 12:14:42;;;;;;;9.38;4.60;;;;;;;;;;4981045;28;20066;-84
2023/10/25 12:17:08;;;;;;;8.60;4.05;;;;;;;;;;4982931;28;20043;-83
2023/10/25 12:19:39;;;;;;;11.85;4.53;;;;;;;;;;4979831;28;20152;-82
2023/10/25 12:22:07;;;;;;;13.93;4.85;;;;;;;;;;4981497;28;20049;-83
2023/10/25 12:24:33;;;;;;;9.15;4.55;;;;;;;;;;4980503;28;20125;-82
2023/10/25 12:27:00;;;;;;;8.52;4.60;;;;;;;;;;4982767;28;20182;-83
2023/10/25 12:29:27;;;;;;;9.35;4.68;;;;;;;;;;4993622;28;20046;-84
2023/10/25 12:31:53;;;;;;;10.38;4.57;;;;;;;;;;4979995;28;20047;-84
2023/10/25 12:34:19;;;;;;;10.27;4.45;;;;;;;;;;4981975;28;20093;-85
2023/10/25 12:36:45;;;;;;;9.35;4.72;;;;;;;;;;4981948;28;20074;-84
2023/10/25 12:39:11;;;;;;;9.65;4.18;;;;;;;;;;4981689;28;20062;-84
2023/10/25 12:41:37;;;;;;;13.48;4.55;;;;;;;;;;4981047;28;20495;-84
2023/10/25 12:44:05;;;;;;;9.63;4.30;;;;;;;;;;4979926;28;20062;-84
2023/10/25 12:46:31;;;;;;;7.07;3.85;;;;;;;;;;4975732;28;20055;-84
2023/10/25 12:48:58;;;;;;;9.55;4.32;;;;;;;;;;4983463;28;20506;-84
2023/10/25 12:51:24;;;;;;;10.63;4.05;;;;;;;;;;4981923;28;20027;-84
2023/10/25 12:53:50;;;;;;;9.90;4.13;;;;;;;;;;4965208;28;20062;-84
2023/10/25 12:56:16;;;;;;;12.88;4.32;;;;;;;;;;4964139;28;20143;-84
2023/10/25 12:58:42;;;;;;;11.00;4.13;;;;;;;;;;4969590;28;20058;-84
2023/10/25 13:01:09;;;;;;;11.75;4.03;;;;;;;;;;4981668;28;20062;-84
2023/10/25 13:03:35;;;;;;;11.27;3.97;;;;;;;;;;4991248;28;20388;-84
2023/10/25 13:06:03;;;;;;;8.05;3.47;;;;;;;;;;4981587;28;20404;-84
2023/10/25 13:08:29;;;;;;;8.27;3.33;;;;;;;;;;4980727;28;20062;-84
2023/10/25 13:10:55;;;;;;;8.93;3.67;;;;;;;;;;4962811;29;20098;-83
2023/10/25 13:13:21;;;;;;;11.07;3.67;;;;;;;;;;4981350;28;20138;-84
2023/10/25 13:15:47;;;;;;;9.35;3.53;;;;;;;;;;4970930;28;20055;-84
2023/10/25 13:18:14;;;;;;;10.85;3.88;;;;;;;;;;4981132;28;20050;-84
2023/10/25 13:20:40;;;;;;;13.00;6.43;;;;;;;;;;4980531;28;20161;-84
2023/10/25 13:23:06;;;;;;;13.50;4.97;;;;;;;;;;4981619;28;20050;-84
2023/10/25 13:25:33;;;;;;;10.52;3.95;;;;;;;;;;4976643;28;20102;-84
2023/10/25 13:27:59;;;;;;;10.00;3.85;;;;;;;;;;4980812;28;20047;-84
2023/10/25 13:30:26;;;;;;;11.40;3.53;;;;;;;;;;4981635;28;20141;-84
2023/10/25 13:32:52;;;;;;;8.82;3.53;;;;;;;;;;4981310;28;20042;-84
2023/10/25 13:35:18;;;;;;;11.80;3.90;;;;;;;;;;4974635;28;20177;-84
2023/10/25 13:37:45;;;;;;;9.70;3.55;;;;;;;;;;4976604;28;20042;-84
2023/10/25 13:40:11;;;;;;;11.32;4.07;;;;;;;;;;4979738;28;20054;-84
2023/10/25 13:42:37;;;;;;;9.25;3.67;;;;;;;;;;4976909;28;20158;-83
2023/10/25 13:45:07;;;;;;;10.65;4.35;;;;;;;;;;4974538;28;20051;-85
2023/10/25 13:47:33;;;;;;;11.93;4.07;;;;;;;;;;4981388;28;20046;-84
2023/10/25 13:49:59;;;;;;;9.15;4.10;;;;;;;;;;4977078;28;20046;-84
2023/10/25 13:52:25;;;;;;;8.48;3.65;;;;;;;;;;4981446;28;20047;-84
2023/10/25 13:54:51;;;;;;;10.05;3.85;;;;;;;;;;4981578;28;20053;-84
2023/10/25 13:57:17;;;;;;;8.57;3.85;;;;;;;;;;4981760;28;20055;-84
2023/10/25 13:59:44;;;;;;;8.90;4.03;;;;;;;;;;4980493;28;20139;-84
2023/10/25 14:02:10;;;;;;;9.05;3.45;;;;;;;;;;4979362;28;20140;-84
2023/10/25 14:04:36;;;;;;;10.02;3.65;;;;;;;;;;4980779;28;20401;-84
2023/10/25 14:07:06;;;;;;;10.40;3.58;;;;;;;;;;4981282;28;20472;-84
2023/10/25 14:09:32;;;;;;;8.20;3.83;;;;;;;;;;4982214;28;20112;-84
2023/10/25 14:11:58;;;;;;;9.50;3.22;;;;;;;;;;4984865;28;20050;-84
2023/10/25 14:14:24;;;;;;;9.18;3.88;;;;;;;;;;4985887;28;20046;-84
2023/10/25 14:16:50;;;;;;;11.68;4.00;;;;;;;;;;4984233;28;20127;-85
2023/10/25 14:19:20;;;;;;;12.05;4.00;;;;;;;;;;4976509;28;20512;-84
2023/10/25 14:21:46;;;;;;;12.10;4.35;;;;;;;;;;4976028;28;20169;-84
2023/10/25 14:24:12;;;;;;;8.93;4.50;;;;;;;;;;4986581;28;20051;-84
2023/10/25 14:26:40;;;;;;;12.45;4.30;;;;;;;;;;4970339;28;20130;-83